createdAt,value
2023-06-17T00:01:12.059Z,24.80
2023-06-17T00:03:45.153Z,27.00
2023-06-17T00:06:11.646Z,28.40
2023-06-17T00:08:38.283Z,28.30
2023-06-17T00:11:05.847Z,28.70
2023-06-17T00:13:33.210Z,27.40
2023-06-17T00:15:59.618Z,30.50
2023-06-17T00:18:26.823Z,29.70
2023-06-17T00:20:54.177Z,27.30
2023-06-17T00:23:21.221Z,27.10
2023-06-17T00:25:48.888Z,28.10
2023-06-17T00:28:15.900Z,29.30
2023-06-17T00:30:46.603Z,27.60
2023-06-17T00:33:13.934Z,27.60
2023-06-17T00:36:54.002Z,20.50
2023-06-17T00:40:50.748Z,18.20
2023-06-17T00:43:17.135Z,19.90
2023-06-17T00:45:44.795Z,22.40
2023-06-17T00:48:11.724Z,25.70
2023-06-17T00:50:38.449Z,24.90
2023-06-17T00:53:05.901Z,24.20
2023-06-17T00:55:33.196Z,24.70
2023-06-17T00:58:01.078Z,24.00
2023-06-17T01:00:27.471Z,26.00
2023-06-17T01:02:54.072Z,28.20
2023-06-17T01:05:20.731Z,27.40
2023-06-17T01:08:14.740Z,28.30
2023-06-17T01:10:49.287Z,26.70
2023-06-17T01:13:16.588Z,26.20
2023-06-17T01:15:44.422Z,25.50
2023-06-17T01:18:12.230Z,24.90
2023-06-17T01:20:39.849Z,23.90
2023-06-17T01:23:06.866Z,22.20
2023-06-17T01:25:35.141Z,22.50
2023-06-17T01:28:16.359Z,23.00
2023-06-17T01:30:54.947Z,21.40
2023-06-17T01:33:23.324Z,21.10
2023-06-17T01:35:59.112Z,20.50
2023-06-17T01:38:30.815Z,18.70
2023-06-17T01:41:10.415Z,20.20
2023-06-17T01:43:40.467Z,17.80
2023-06-17T01:46:07.885Z,17.40
2023-06-17T01:48:34.240Z,18.50
2023-06-17T01:51:00.731Z,17.90
2023-06-17T01:53:29.196Z,18.00
2023-06-17T01:55:56.017Z,16.80
2023-06-17T01:58:22.707Z,17.90
2023-06-17T02:00:49.194Z,17.20
2023-06-17T02:03:16.640Z,17.40
2023-06-17T02:05:43.757Z,16.30
2023-06-17T02:08:11.401Z,15.90
2023-06-17T02:10:38.677Z,15.30
2023-06-17T02:13:05.107Z,15.10
2023-06-17T02:15:31.644Z,15.50
2023-06-17T02:17:58.702Z,14.10
2023-06-17T02:20:26.145Z,15.00
2023-06-17T02:22:53.236Z,14.20
2023-06-17T02:25:20.404Z,13.80
2023-06-17T02:27:46.928Z,13.60
2023-06-17T02:30:13.591Z,13.90
2023-06-17T02:32:40.063Z,13.00
2023-06-17T02:35:06.757Z,13.10
2023-06-17T02:37:33.749Z,12.90
2023-06-17T02:40:00.210Z,12.10
2023-06-17T02:42:26.654Z,12.30
2023-06-17T02:44:53.046Z,11.00
2023-06-17T02:47:19.586Z,11.60
2023-06-17T02:49:46.092Z,11.10
2023-06-17T02:52:12.474Z,10.90
2023-06-17T02:54:38.858Z,10.40
2023-06-17T02:57:05.677Z,10.60
2023-06-17T02:59:34.165Z,10.20
2023-06-17T03:04:38.193Z,8.70
2023-06-17T03:07:06.954Z,9.50
2023-06-17T03:09:34.802Z,9.50
2023-06-17T03:12:04.205Z,9.40
2023-06-17T03:14:31.985Z,9.40
2023-06-17T03:17:00.287Z,9.20
2023-06-17T03:19:28.420Z,9.50
2023-06-17T03:21:56.896Z,9.90
2023-06-17T03:24:25.446Z,10.40
2023-06-17T03:26:54.608Z,10.20
2023-06-17T03:29:22.577Z,9.30
2023-06-17T03:31:51.251Z,9.90
2023-06-17T03:34:19.139Z,9.40
2023-06-17T03:36:48.481Z,9.10
2023-06-17T03:39:16.558Z,9.40
2023-06-17T03:41:44.572Z,9.80
2023-06-17T03:44:12.412Z,10.40
2023-06-17T03:46:40.210Z,9.70
2023-06-17T03:49:09.014Z,9.80
2023-06-17T03:51:38.052Z,9.10
2023-06-17T03:54:05.998Z,9.70
2023-06-17T03:56:33.835Z,9.30
2023-06-17T03:59:01.791Z,9.40
2023-06-17T04:01:31.748Z,9.50
2023-06-17T04:03:59.754Z,9.40
2023-06-17T04:06:27.752Z,10.00
2023-06-17T04:08:55.565Z,9.10
2023-06-17T04:11:23.442Z,9.10
2023-06-17T04:13:51.244Z,9.50
2023-06-17T04:16:19.101Z,10.10
2023-06-17T04:18:48.124Z,9.60
2023-06-17T04:21:16.052Z,10.00
2023-06-17T04:23:43.837Z,9.30
2023-06-17T04:26:14.196Z,9.50
2023-06-17T04:28:42.087Z,10.20
2023-06-17T04:31:12.194Z,10.20
2023-06-17T04:33:41.574Z,10.10
2023-06-17T04:36:10.081Z,9.70
2023-06-17T04:38:39.641Z,10.10
2023-06-17T04:41:07.670Z,10.90
2023-06-17T04:43:38.231Z,11.50
2023-06-17T04:46:06.451Z,12.20
2023-06-17T04:48:34.188Z,12.00
2023-06-17T04:51:01.974Z,12.30
2023-06-17T04:53:29.728Z,14.00
2023-06-17T04:55:57.809Z,12.90
2023-06-17T04:58:25.674Z,13.40
2023-06-17T05:00:53.520Z,12.30
2023-06-17T05:03:21.321Z,12.70
2023-06-17T05:05:49.396Z,12.40
2023-06-17T05:08:17.350Z,12.70
2023-06-17T05:10:45.197Z,11.90
2023-06-17T05:13:13.028Z,12.20
2023-06-17T05:15:40.916Z,12.20
2023-06-17T05:18:08.715Z,12.40
2023-06-17T05:20:36.465Z,12.40
2023-06-17T05:23:04.311Z,13.40
2023-06-17T05:25:32.073Z,12.40
2023-06-17T05:28:00.968Z,11.70
2023-06-17T05:30:29.034Z,11.30
2023-06-17T05:32:56.910Z,11.30
2023-06-17T05:35:24.668Z,11.80
2023-06-17T05:37:52.508Z,12.10
2023-06-17T05:40:20.402Z,12.10
2023-06-17T05:42:48.485Z,12.30
2023-06-17T05:45:16.337Z,12.20
2023-06-17T05:47:44.168Z,12.20
2023-06-17T05:50:11.990Z,10.10
2023-06-17T05:52:39.930Z,10.40
2023-06-17T05:55:08.373Z,11.60
2023-06-17T05:57:36.705Z,12.70
2023-06-17T06:00:07.290Z,11.90
2023-06-17T06:02:35.171Z,11.70
2023-06-17T06:05:04.498Z,11.70
2023-06-17T06:07:34.879Z,12.50
2023-06-17T06:10:09.012Z,11.70
2023-06-17T06:12:36.851Z,11.40
2023-06-17T06:15:07.157Z,11.20
2023-06-17T06:17:35.270Z,10.80
2023-06-17T06:20:04.481Z,11.30
2023-06-17T06:22:32.389Z,10.90
2023-06-17T06:25:00.345Z,11.30
2023-06-17T06:27:54.129Z,10.10
2023-06-17T06:30:22.238Z,11.70
2023-06-17T06:32:50.503Z,11.80
2023-06-17T06:35:18.420Z,11.80
2023-06-17T06:37:46.281Z,11.50
2023-06-17T06:40:14.448Z,10.90
2023-06-17T06:42:42.444Z,10.60
2023-06-17T06:45:11.392Z,10.50
2023-06-17T06:47:40.052Z,10.30
2023-06-17T06:50:11.096Z,9.90
2023-06-17T06:52:38.959Z,9.60
2023-06-17T06:55:12.597Z,10.10
2023-06-17T06:57:40.744Z,10.20
2023-06-17T07:00:13.608Z,10.00
2023-06-17T07:02:41.581Z,9.90
2023-06-17T07:05:10.980Z,9.70
2023-06-17T07:07:39.000Z,9.60
2023-06-17T07:10:07.387Z,9.30
2023-06-17T07:12:35.297Z,9.10
2023-06-17T07:15:03.310Z,9.20
2023-06-17T07:17:32.912Z,8.80
2023-06-17T07:20:00.866Z,8.20
2023-06-17T07:23:44.674Z,7.70
2023-06-17T07:26:13.589Z,7.30
2023-06-17T07:28:41.569Z,7.90
2023-06-17T07:31:09.789Z,7.60
2023-06-17T07:33:39.733Z,7.00
2023-06-17T07:36:11.525Z,7.20
2023-06-17T07:38:43.616Z,7.30
2023-06-17T07:41:12.218Z,7.50
2023-06-17T07:43:40.242Z,6.60
2023-06-17T07:46:10.752Z,7.10
2023-06-17T07:48:38.743Z,6.70
2023-06-17T07:51:08.306Z,6.70
2023-06-17T07:53:41.216Z,7.30
2023-06-17T07:56:09.620Z,6.60
2023-06-17T07:58:39.986Z,6.70
2023-06-17T08:01:10.145Z,6.40
2023-06-17T08:03:38.069Z,6.00
2023-06-17T08:06:06.705Z,6.50
2023-06-17T08:08:35.460Z,6.10
2023-06-17T08:11:03.455Z,6.50
2023-06-17T08:13:35.647Z,6.40
2023-06-17T08:16:13.882Z,5.70
2023-06-17T08:18:43.040Z,6.20
2023-06-17T08:22:02.304Z,5.70
2023-06-17T08:24:30.300Z,5.60
2023-06-17T08:27:00.570Z,6.00
2023-06-17T08:29:29.286Z,5.80
2023-06-17T08:31:57.270Z,5.60
2023-06-17T08:34:25.258Z,5.80
2023-06-17T08:36:56.395Z,6.00
2023-06-17T08:39:24.229Z,6.10
2023-06-17T08:41:52.231Z,5.90
2023-06-17T08:44:23.560Z,5.50
2023-06-17T08:46:54.311Z,5.80
2023-06-17T08:49:29.121Z,5.80
2023-06-17T08:52:02.532Z,6.10
2023-06-17T08:54:34.342Z,5.80
2023-06-17T08:57:03.337Z,5.80
2023-06-17T08:59:34.625Z,5.70
2023-06-17T09:02:15.828Z,5.50
2023-06-17T09:04:45.878Z,5.70
2023-06-17T09:07:14.672Z,5.30
2023-06-17T09:09:49.488Z,5.50
2023-06-17T09:12:17.547Z,5.70
2023-06-17T09:14:48.771Z,5.50
2023-06-17T09:17:30.199Z,5.20
2023-06-17T09:20:11.499Z,5.20
2023-06-17T09:22:44.456Z,5.10
2023-06-17T09:25:16.925Z,5.10
2023-06-17T09:28:11.000Z,5.00
2023-06-17T09:30:43.738Z,4.60
2023-06-17T09:33:22.935Z,4.90
2023-06-17T09:36:02.288Z,5.10
2023-06-17T09:38:34.797Z,5.10
2023-06-17T09:41:06.474Z,4.90
2023-06-17T09:43:35.155Z,4.70
2023-06-17T09:46:06.245Z,4.80
2023-06-17T09:48:38.544Z,4.80
2023-06-17T09:51:10.858Z,4.60
2023-06-17T09:53:42.374Z,4.70
2023-06-17T09:56:12.328Z,4.30
2023-06-17T09:58:44.546Z,4.70
2023-06-17T10:01:14.977Z,4.50
2023-06-17T10:03:43.141Z,4.10
2023-06-17T10:06:13.434Z,4.50
2023-06-17T10:08:44.069Z,4.50
2023-06-17T10:11:16.745Z,4.30
2023-06-17T10:13:52.892Z,4.20
2023-06-17T10:16:25.799Z,4.70
2023-06-17T10:18:58.068Z,4.60
2023-06-17T10:21:30.525Z,4.60
2023-06-17T10:24:01.786Z,4.40
2023-06-17T10:26:32.276Z,4.80
2023-06-17T10:29:03.533Z,4.80
2023-06-17T10:31:33.230Z,5.00
2023-06-17T10:34:02.978Z,5.10
2023-06-17T10:36:34.980Z,4.80
2023-06-17T10:39:08.567Z,5.30
2023-06-17T10:41:39.483Z,5.50
2023-06-17T10:44:29.388Z,5.60
2023-06-17T10:46:57.952Z,5.30
2023-06-17T10:49:26.813Z,5.60
2023-06-17T10:52:00.877Z,5.60
2023-06-17T10:54:30.839Z,5.50
2023-06-17T10:57:02.946Z,5.20
2023-06-17T10:59:34.349Z,5.20
2023-06-17T11:02:04.742Z,5.50
2023-06-17T11:04:35.065Z,5.60
2023-06-17T11:07:04.194Z,5.90
2023-06-17T11:09:35.101Z,6.00
2023-06-17T11:12:05.045Z,7.00
2023-06-17T11:14:34.542Z,6.70
2023-06-17T11:17:03.021Z,6.80
2023-06-17T11:19:30.892Z,6.90
2023-06-17T11:22:04.547Z,7.10
2023-06-17T11:24:40.974Z,6.60
2023-06-17T11:27:12.072Z,7.40
2023-06-17T11:29:43.234Z,7.80
2023-06-17T11:32:12.242Z,7.70
2023-06-17T11:34:54.399Z,7.30
2023-06-17T11:37:22.892Z,8.00
2023-06-17T11:39:50.669Z,7.60
2023-06-17T11:42:20.545Z,7.90
2023-06-17T11:44:49.294Z,8.00
2023-06-17T11:47:17.464Z,7.50
2023-06-17T11:49:45.384Z,7.60
2023-06-17T11:52:15.310Z,8.10
2023-06-17T11:54:47.166Z,7.70
2023-06-17T11:57:23.163Z,8.10
2023-06-17T11:59:52.362Z,7.80
2023-06-17T12:02:21.023Z,7.70
2023-06-17T12:04:49.277Z,7.60
2023-06-17T12:07:17.177Z,7.70
2023-06-17T12:09:53.404Z,7.20
2023-06-17T12:12:36.058Z,7.20
2023-06-17T12:17:43.616Z,6.50
2023-06-17T12:20:16.145Z,6.10
2023-06-17T12:22:45.968Z,6.00
2023-06-17T12:25:17.425Z,6.00
2023-06-17T12:27:45.650Z,5.50
2023-06-17T12:30:15.251Z,5.70
2023-06-17T12:32:44.509Z,5.60
2023-06-17T12:35:15.646Z,5.40
2023-06-17T12:37:45.225Z,5.00
2023-06-17T12:40:14.663Z,5.30
2023-06-17T12:42:43.565Z,5.30
2023-06-17T12:45:11.743Z,5.30
2023-06-17T12:47:40.270Z,5.30
2023-06-17T12:50:09.204Z,5.30
2023-06-17T12:52:37.435Z,4.90
2023-06-17T12:55:07.179Z,4.90
2023-06-17T12:57:35.366Z,5.10
2023-06-17T13:00:07.603Z,4.90
2023-06-17T13:02:37.353Z,5.00
2023-06-17T13:05:08.384Z,5.50
2023-06-17T13:07:37.619Z,5.10
2023-06-17T13:10:06.915Z,5.60
2023-06-17T13:12:35.094Z,5.10
2023-06-17T13:15:06.233Z,5.40
2023-06-17T13:17:34.225Z,5.30
2023-06-17T13:20:04.429Z,5.10
2023-06-17T13:22:39.233Z,5.40
2023-06-17T13:25:14.742Z,4.60
2023-06-17T13:27:43.679Z,4.80
2023-06-17T13:30:14.295Z,4.80
2023-06-17T13:32:42.438Z,4.90
2023-06-17T13:35:11.600Z,4.50
2023-06-17T13:37:40.122Z,4.50
2023-06-17T13:40:09.900Z,4.50
2023-06-17T13:42:38.068Z,4.60
2023-06-17T13:45:07.756Z,4.10
2023-06-17T13:47:35.702Z,3.90
2023-06-17T13:50:07.831Z,3.90
2023-06-17T13:56:42.974Z,4.00
2023-06-17T13:59:14.081Z,4.10
2023-06-17T14:01:42.421Z,3.70
2023-06-17T14:04:12.126Z,4.00
2023-06-17T14:06:41.203Z,3.70
2023-06-17T14:09:09.159Z,3.80
2023-06-17T14:11:38.879Z,3.90
2023-06-17T14:14:07.105Z,5.60
2023-06-17T14:16:35.205Z,4.00
2023-06-17T14:19:05.362Z,3.70
2023-06-17T14:21:35.788Z,4.00
2023-06-17T14:24:12.150Z,4.20
2023-06-17T14:26:42.001Z,3.90
2023-06-17T14:29:10.878Z,4.20
2023-06-17T14:31:39.925Z,4.40
2023-06-17T14:34:07.758Z,4.30
2023-06-17T14:36:35.962Z,3.90
2023-06-17T14:39:04.172Z,3.90
2023-06-17T14:41:33.754Z,4.10
2023-06-17T14:44:02.260Z,3.70
2023-06-17T14:46:30.074Z,3.90
2023-06-17T14:48:58.009Z,3.50
2023-06-17T14:51:25.832Z,3.60
2023-06-17T14:53:54.927Z,3.50
2023-06-17T14:56:29.094Z,4.00
2023-06-17T14:58:58.636Z,12.20
2023-06-17T15:01:27.706Z,52.20
2023-06-17T15:03:56.765Z,3.50
2023-06-17T15:06:25.006Z,11.00
2023-06-17T15:09:26.518Z,15.00
2023-06-17T15:12:10.949Z,48.20
2023-06-17T15:14:38.777Z,33.20
2023-06-17T15:17:07.590Z,25.60
2023-06-17T15:19:37.685Z,29.80
2023-06-17T15:22:05.877Z,18.10
2023-06-17T15:24:34.209Z,6.10
2023-06-17T15:27:02.214Z,10.90
2023-06-17T15:29:30.073Z,7.80
2023-06-17T15:31:58.082Z,5.20
2023-06-17T15:34:26.049Z,6.20
2023-06-17T15:36:54.587Z,5.30
2023-06-17T15:39:26.490Z,5.70
2023-06-17T15:41:54.880Z,6.10
2023-06-17T15:44:23.325Z,5.00
2023-06-17T15:46:53.688Z,6.10
2023-06-17T15:49:21.662Z,5.30
2023-06-17T15:51:49.450Z,5.20
2023-06-17T15:54:19.263Z,5.50
2023-06-17T15:56:47.873Z,5.10
2023-06-17T15:59:16.464Z,5.30
2023-06-17T16:01:44.517Z,5.20
2023-06-17T16:04:33.748Z,5.50
2023-06-17T16:07:03.998Z,5.60
2023-06-17T16:09:33.898Z,5.50
2023-06-17T16:12:05.404Z,5.60
2023-06-17T16:14:34.256Z,5.50
2023-06-17T16:17:04.205Z,5.60
2023-06-17T16:19:33.064Z,5.70
2023-06-17T16:22:03.426Z,6.70
2023-06-17T16:24:36.066Z,8.70
2023-06-17T16:27:04.131Z,5.90
2023-06-17T16:29:32.396Z,8.60
2023-06-17T16:32:00.328Z,7.90
2023-06-17T16:34:28.266Z,7.00
2023-06-17T16:36:56.231Z,6.80
2023-06-17T16:39:24.100Z,5.80
2023-06-17T16:41:52.039Z,5.80
2023-06-17T16:44:19.944Z,6.20
2023-06-17T16:46:49.309Z,6.00
2023-06-17T16:49:19.003Z,6.00
2023-06-17T16:51:47.951Z,6.10
2023-06-17T16:54:16.021Z,5.60
2023-06-17T16:56:44.040Z,5.70
2023-06-17T16:59:12.096Z,6.00
2023-06-17T17:01:40.584Z,6.10
2023-06-17T17:04:12.895Z,6.20
2023-06-17T17:06:43.337Z,6.30
2023-06-17T17:09:12.314Z,5.90
2023-06-17T17:11:41.660Z,5.80
2023-06-17T17:14:09.604Z,5.70
2023-06-17T17:16:37.719Z,5.70
2023-06-17T17:19:06.216Z,5.80
2023-06-17T17:21:35.274Z,5.80
2023-06-17T17:24:06.080Z,5.90
2023-06-17T17:27:46.976Z,5.30
2023-06-17T17:31:24.537Z,5.80
2023-06-17T17:35:04.998Z,5.70
2023-06-17T17:37:36.867Z,6.30
2023-06-17T17:40:07.181Z,6.20
2023-06-17T17:42:37.762Z,6.50
2023-06-17T17:45:07.579Z,6.20
2023-06-17T17:47:36.046Z,6.00
2023-06-17T17:50:06.691Z,6.10
2023-06-17T17:52:34.890Z,6.40
2023-06-17T17:55:03.251Z,6.40
2023-06-17T17:59:03.644Z,6.40
2023-06-17T18:02:44.077Z,6.60
2023-06-17T18:06:26.066Z,6.00
2023-06-17T18:10:24.307Z,6.30
2023-06-17T18:14:02.793Z,6.50
2023-06-17T18:17:21.240Z,6.90
2023-06-17T18:20:58.764Z,6.50
2023-06-17T18:24:36.706Z,6.80
2023-06-17T18:27:05.187Z,7.40
2023-06-17T18:29:33.390Z,7.00
2023-06-17T18:32:02.444Z,7.00
2023-06-17T18:34:30.475Z,7.50
2023-06-17T18:38:28.966Z,7.00
2023-06-17T18:42:06.138Z,7.70
2023-06-17T18:46:06.045Z,7.40
2023-06-17T18:48:32.880Z,7.90
2023-06-17T18:50:59.438Z,7.80
2023-06-17T18:53:25.967Z,7.90
2023-06-17T18:55:52.638Z,9.10
2023-06-17T18:58:19.285Z,9.10
2023-06-17T19:00:46.211Z,8.60
2023-06-17T19:03:12.928Z,8.60
2023-06-17T19:05:40.352Z,8.30
2023-06-17T19:08:07.174Z,8.60
2023-06-17T19:10:33.694Z,8.50
2023-06-17T19:13:02.840Z,8.40
2023-06-17T19:15:33.571Z,8.80
2023-06-17T19:18:01.001Z,8.40
2023-06-17T19:20:27.869Z,8.20
2023-06-17T19:22:54.463Z,8.40
2023-06-17T19:25:21.116Z,8.70
2023-06-17T19:27:48.099Z,8.20
2023-06-17T19:30:16.721Z,8.70
2023-06-17T19:32:43.378Z,8.40
2023-06-17T19:35:10.154Z,8.70
2023-06-17T19:37:54.741Z,8.30
2023-06-17T19:40:24.432Z,9.40
2023-06-17T19:42:52.819Z,9.10
2023-06-17T19:45:27.942Z,10.00
2023-06-17T19:48:02.341Z,10.00
2023-06-17T19:53:10.283Z,10.30
2023-06-17T19:56:43.818Z,9.30
2023-06-17T19:59:51.786Z,9.30
2023-06-17T20:03:09.956Z,9.40
2023-06-17T20:06:51.417Z,9.70
2023-06-17T20:10:49.256Z,9.80
2023-06-17T20:13:16.599Z,10.80
2023-06-17T20:15:43.581Z,10.30
2023-06-17T20:18:10.669Z,10.70
2023-06-17T20:20:37.505Z,10.80
2023-06-17T20:23:04.287Z,10.30
2023-06-17T20:25:31.611Z,10.80
2023-06-17T20:27:58.252Z,11.10
2023-06-17T20:30:26.496Z,11.10
2023-06-17T20:32:53.342Z,11.30
2023-06-17T20:35:19.989Z,11.40
2023-06-17T20:37:46.876Z,11.00
2023-06-17T20:40:13.823Z,11.20
2023-06-17T20:42:40.463Z,11.30
2023-06-17T20:45:11.662Z,11.30
2023-06-17T20:47:38.431Z,11.50
2023-06-17T20:50:06.697Z,11.60
2023-06-17T20:52:33.334Z,11.50
2023-06-17T20:55:03.912Z,12.00
2023-06-17T20:57:33.103Z,11.60
2023-06-17T21:00:00.700Z,11.80
2023-06-17T21:02:27.358Z,11.80
2023-06-17T21:04:56.398Z,11.50
2023-06-17T21:07:23.130Z,13.20
2023-06-17T21:09:51.291Z,12.40
2023-06-17T21:12:21.644Z,12.10
2023-06-17T21:14:48.521Z,12.30
2023-06-17T21:17:15.883Z,14.30
2023-06-17T21:19:42.386Z,13.30
2023-06-17T21:22:09.031Z,14.70
2023-06-17T21:24:35.682Z,14.10
2023-06-17T21:27:02.576Z,15.10
2023-06-17T21:29:29.028Z,13.00
2023-06-17T21:31:55.458Z,13.00
2023-06-17T21:34:21.992Z,13.20
2023-06-17T21:36:48.469Z,12.60
2023-06-17T21:39:15.467Z,13.20
2023-06-17T21:41:42.060Z,13.60
2023-06-17T21:44:09.753Z,14.50
2023-06-17T21:46:36.388Z,14.70
2023-06-17T21:49:02.877Z,15.00
2023-06-17T21:51:29.301Z,14.60
2023-06-17T21:53:55.910Z,14.70
2023-06-17T21:56:22.540Z,15.20
2023-06-17T21:58:49.079Z,15.90
2023-06-17T22:01:15.987Z,15.80
2023-06-17T22:03:42.733Z,16.00
2023-06-17T22:06:09.326Z,15.80
2023-06-17T22:08:42.852Z,15.70
2023-06-17T22:11:11.482Z,15.80
2023-06-17T22:13:39.674Z,15.60
2023-06-17T22:16:06.454Z,18.00
2023-06-17T22:18:57.895Z,16.60
2023-06-17T22:22:37.695Z,16.40
2023-06-17T22:25:07.938Z,17.50
2023-06-17T22:27:35.823Z,17.10
2023-06-17T22:30:04.420Z,16.80
2023-06-17T22:32:33.688Z,16.70
2023-06-17T22:35:04.926Z,16.90
2023-06-17T22:37:33.572Z,16.40
2023-06-17T22:40:01.444Z,17.10
2023-06-17T22:42:29.261Z,16.50
2023-06-17T22:44:57.213Z,16.90
2023-06-17T22:47:25.228Z,16.90
2023-06-17T22:49:54.550Z,16.90
2023-06-17T22:52:22.432Z,16.50
2023-06-17T22:54:50.544Z,15.80
2023-06-17T22:57:18.563Z,16.20
2023-06-17T22:59:46.902Z,15.70
2023-06-17T23:02:14.819Z,16.50
2023-06-17T23:04:43.309Z,16.30
2023-06-17T23:07:11.881Z,17.10
2023-06-17T23:11:48.891Z,15.30
2023-06-17T23:14:16.721Z,16.30
2023-06-17T23:16:45.754Z,15.90
2023-06-17T23:19:13.619Z,16.30
2023-06-17T23:21:41.771Z,16.00
2023-06-17T23:25:41.543Z,14.30
2023-06-17T23:29:39.449Z,14.60
2023-06-17T23:32:58.530Z,15.00
2023-06-17T23:35:27.197Z,16.30
2023-06-17T23:37:55.398Z,17.00
2023-06-17T23:40:23.557Z,17.90
2023-06-17T23:48:30.915Z,15.30
2023-06-17T23:52:27.915Z,16.40
2023-06-17T23:54:54.471Z,18.00
2023-06-17T23:57:21.333Z,17.70
2023-06-17T23:59:47.949Z,18.40
